createdAt,value
2019-06-08T00:01:22.826Z,99682.41
2019-06-08T00:03:52.643Z,99676.75
2019-06-08T00:06:23.094Z,99683.88
2019-06-08T00:08:52.812Z,99678.61
2019-06-08T00:11:23.442Z,99675.44
2019-06-08T00:13:53.277Z,99670.01
2019-06-08T00:16:23.774Z,99665.93
2019-06-08T00:18:53.684Z,99668.80
2019-06-08T00:21:24.068Z,99675.41
2019-06-08T00:23:53.918Z,99679.69
2019-06-08T00:26:24.367Z,99677.91
2019-06-08T00:28:54.259Z,99681.01
2019-06-08T00:31:24.239Z,99679.27
2019-06-08T00:33:53.873Z,99682.51
2019-06-08T00:36:25.072Z,99683.73
2019-06-08T00:38:54.807Z,99679.56
2019-06-08T00:41:25.426Z,99681.83
2019-06-08T00:43:55.090Z,99686.23
2019-06-08T00:46:25.729Z,99686.57
2019-06-08T00:48:55.527Z,99676.72
2019-06-08T00:51:25.554Z,99683.90
2019-06-08T00:53:55.490Z,99684.08
2019-06-08T00:56:26.017Z,99686.17
2019-06-08T00:58:55.767Z,99684.31
2019-06-08T01:01:28.035Z,99680.53
2019-06-08T01:03:56.735Z,99680.73
2019-06-08T01:06:27.519Z,99684.39
2019-06-08T01:08:57.398Z,99677.17
2019-06-08T01:11:27.132Z,99682.63
2019-06-08T01:13:57.469Z,99681.33
2019-06-08T01:16:27.233Z,99688.84
2019-06-08T01:18:56.851Z,99680.97
2019-06-08T01:21:27.722Z,99680.77
2019-06-08T01:23:57.575Z,99677.88
2019-06-08T01:26:28.199Z,99679.64
2019-06-08T01:28:57.878Z,99682.92
2019-06-08T01:31:28.360Z,99684.78
2019-06-08T01:33:58.221Z,99682.44
2019-06-08T01:36:29.063Z,99684.62
2019-06-08T01:38:58.813Z,99685.36
2019-06-08T01:41:29.540Z,99680.45
2019-06-08T01:43:59.318Z,99684.32
2019-06-08T01:46:30.223Z,99683.67
2019-06-08T01:48:59.981Z,99681.84
2019-06-08T01:51:30.565Z,99672.90
2019-06-08T01:54:00.240Z,99684.75
2019-06-08T01:56:31.150Z,99683.40
2019-06-08T01:59:00.870Z,99680.42
2019-06-08T02:01:31.979Z,99687.11
2019-06-08T02:04:02.054Z,99687.49
2019-06-08T02:06:32.460Z,99693.19
2019-06-08T02:09:03.110Z,99694.23
2019-06-08T02:11:33.095Z,99691.98
2019-06-08T02:14:02.889Z,99691.48
2019-06-08T02:16:33.335Z,99695.21
2019-06-08T02:19:03.283Z,99692.58
2019-06-08T02:21:33.117Z,99696.18
2019-06-08T02:24:02.943Z,99694.26
2019-06-08T02:26:35.199Z,99687.17
2019-06-08T02:29:04.471Z,99694.72
2019-06-08T02:31:35.065Z,99698.25
2019-06-08T02:34:06.386Z,99701.51
2019-06-08T02:36:37.854Z,99701.88
2019-06-08T02:39:09.283Z,99702.33
2019-06-08T02:41:40.065Z,99699.06
2019-06-08T02:44:09.960Z,99696.84
2019-06-08T02:46:40.385Z,99699.81
2019-06-08T02:49:10.615Z,99702.29
2019-06-08T02:51:41.206Z,99704.15
2019-06-08T02:54:12.715Z,99707.98
2019-06-08T02:56:43.673Z,99708.88
2019-06-08T02:59:15.158Z,99710.66
2019-06-08T03:01:47.942Z,99713.52
2019-06-08T03:04:19.139Z,99708.84
2019-06-08T03:06:51.211Z,99713.76
2019-06-08T03:09:24.318Z,99716.52
2019-06-08T03:11:56.825Z,99715.80
2019-06-08T03:14:30.952Z,99715.31
2019-06-08T03:17:00.791Z,99716.34
2019-06-08T03:19:31.281Z,99712.19
2019-06-08T03:22:01.395Z,99714.86
2019-06-08T03:24:32.380Z,99716.97
2019-06-08T03:27:02.702Z,99709.31
2019-06-08T03:29:32.540Z,99721.53
2019-06-08T03:32:02.415Z,99721.53
2019-06-08T03:34:35.617Z,99724.22
2019-06-08T03:37:03.780Z,99719.22
2019-06-08T03:39:35.249Z,99727.92
2019-06-08T03:42:05.152Z,99726.21
2019-06-08T03:44:36.151Z,99730.70
2019-06-08T03:47:06.115Z,99727.53
2019-06-08T03:49:43.061Z,99723.69
2019-06-08T03:52:07.534Z,99725.73
2019-06-08T03:54:38.875Z,99728.66
2019-06-08T03:57:08.903Z,99734.38
2019-06-08T03:59:40.773Z,99726.92
2019-06-08T04:02:10.456Z,99719.61
2019-06-08T04:04:41.753Z,99716.29
2019-06-08T04:07:11.887Z,99723.31
2019-06-08T04:09:41.835Z,99721.50
2019-06-08T04:12:11.781Z,99720.72
2019-06-08T04:14:42.155Z,99727.13
2019-06-08T04:17:12.834Z,99724.95
2019-06-08T04:20:02.813Z,99720.77
2019-06-08T04:22:14.465Z,99719.03
2019-06-08T04:24:45.127Z,99723.60
2019-06-08T04:27:16.012Z,99726.07
2019-06-08T04:29:46.166Z,99731.56
2019-06-08T04:32:16.253Z,99726.75
2019-06-08T04:34:47.442Z,99726.55
2019-06-08T04:37:17.678Z,99732.58
2019-06-08T04:39:47.729Z,99732.71
2019-06-08T04:42:17.758Z,99734.30
2019-06-08T04:44:49.413Z,99734.61
2019-06-08T04:47:19.537Z,99734.90
2019-06-08T04:49:49.468Z,99741.11
2019-06-08T04:52:19.331Z,99744.77
2019-06-08T04:54:50.069Z,99739.92
2019-06-08T04:57:19.899Z,99742.27
2019-06-08T04:59:50.391Z,99744.16
2019-06-08T05:02:20.507Z,99743.83
2019-06-08T05:04:50.262Z,99740.36
2019-06-08T05:07:20.166Z,99748.79
2019-06-08T05:09:49.904Z,99752.21
2019-06-08T05:12:19.760Z,99757.47
2019-06-08T05:14:49.438Z,99764.54
2019-06-08T05:17:19.145Z,99758.79
2019-06-08T05:19:50.279Z,99765.25
2019-06-08T05:22:20.254Z,99763.74
2019-06-08T05:24:50.264Z,99765.48
2019-06-08T05:27:20.104Z,99763.97
2019-06-08T05:29:50.172Z,99773.73
2019-06-08T05:32:20.130Z,99769.11
2019-06-08T05:34:49.877Z,99772.43
2019-06-08T05:37:19.843Z,99778.98
2019-06-08T05:39:49.980Z,99774.66
2019-06-08T05:42:20.017Z,99776.70
2019-06-08T05:44:50.235Z,99774.69
2019-06-08T05:47:20.161Z,99782.03
2019-06-08T05:49:50.051Z,99784.73
2019-06-08T05:52:19.901Z,99787.60
2019-06-08T05:54:50.161Z,99788.13
2019-06-08T05:57:19.938Z,99790.02
2019-06-08T05:59:50.314Z,99786.52
2019-06-08T06:02:20.291Z,99792.65
2019-06-08T06:04:52.237Z,99791.97
2019-06-08T06:07:23.344Z,99791.88
2019-06-08T06:09:53.094Z,99797.56
2019-06-08T06:12:22.793Z,99793.18
2019-06-08T06:14:52.551Z,99797.09
2019-06-08T06:17:22.264Z,99808.53
2019-06-08T06:19:51.902Z,99808.48
2019-06-08T06:22:21.762Z,99813.86
2019-06-08T06:24:51.875Z,99823.08
2019-06-08T06:27:21.712Z,99821.61
2019-06-08T06:29:52.039Z,99818.70
2019-06-08T06:32:21.948Z,99819.52
2019-06-08T06:34:52.151Z,99822.55
2019-06-08T06:37:22.413Z,99825.04
2019-06-08T06:39:52.348Z,99826.59
2019-06-08T06:42:24.744Z,99825.14
2019-06-08T06:44:53.724Z,99828.34
2019-06-08T06:47:23.346Z,99830.76
2019-06-08T06:49:52.990Z,99834.47
2019-06-08T06:52:22.730Z,99840.47
2019-06-08T06:54:53.252Z,99840.20
2019-06-08T06:57:24.827Z,99840.50
2019-06-08T06:59:54.652Z,99839.19
2019-06-08T07:02:25.248Z,99853.08
2019-06-08T07:04:56.110Z,99852.48
2019-06-08T07:07:26.003Z,99854.49
2019-06-08T07:09:55.630Z,99857.63
2019-06-08T07:12:25.318Z,99858.08
2019-06-08T07:14:55.458Z,99862.14
2019-06-08T07:17:25.243Z,99854.97
2019-06-08T07:19:54.827Z,99857.50
2019-06-08T07:22:24.675Z,99860.42
2019-06-08T07:24:54.643Z,99864.62
2019-06-08T07:27:24.292Z,99862.59
2019-06-08T07:29:54.746Z,99867.55
2019-06-08T07:32:24.557Z,99867.55
2019-06-08T07:34:55.288Z,99865.48
2019-06-08T07:37:25.204Z,99867.35
2019-06-08T07:39:56.069Z,99863.47
2019-06-08T07:42:26.020Z,99865.72
2019-06-08T07:44:55.737Z,99863.84
2019-06-08T07:47:25.286Z,99862.34
2019-06-08T07:49:55.616Z,99860.34
2019-06-08T07:52:25.409Z,99845.08
2019-06-08T07:54:55.040Z,99844.86
2019-06-08T07:57:24.660Z,99855.55
2019-06-08T07:59:54.652Z,99847.63
2019-06-08T08:02:25.932Z,99844.36
2019-06-08T08:04:56.768Z,99850.81
2019-06-08T08:07:27.383Z,99849.92
2019-06-08T08:09:57.155Z,99850.53
2019-06-08T08:12:27.154Z,99846.34
2019-06-08T08:14:58.036Z,99842.75
2019-06-08T08:17:28.662Z,99848.42
2019-06-08T08:19:59.381Z,99843.65
2019-06-08T08:22:29.833Z,99855.00
2019-06-08T08:25:04.649Z,99860.23
2019-06-08T08:27:31.964Z,99853.16
2019-06-08T08:30:02.377Z,99856.41
2019-06-08T08:32:33.654Z,99863.86
2019-06-08T08:35:03.616Z,99866.80
2019-06-08T08:37:33.710Z,99862.51
2019-06-08T08:40:03.536Z,99860.11
2019-06-08T08:42:33.304Z,99862.98
2019-06-08T08:45:05.477Z,99865.10
2019-06-08T08:47:34.486Z,99861.50
2019-06-08T08:50:07.454Z,99852.05
2019-06-08T08:52:40.532Z,99851.88
2019-06-08T08:55:09.253Z,99851.05
2019-06-08T08:57:41.659Z,99855.59
2019-06-08T09:00:11.527Z,99857.94
2019-06-08T09:02:41.316Z,99860.86
2019-06-08T09:05:11.500Z,99862.29
2019-06-08T09:07:41.271Z,99856.16
2019-06-08T09:10:11.782Z,99853.90
2019-06-08T09:12:41.567Z,99859.91
2019-06-08T09:15:11.490Z,99863.70
2019-06-08T09:17:41.029Z,99858.34
2019-06-08T09:20:15.376Z,99859.51
2019-06-08T09:22:53.899Z,99858.40
2019-06-08T09:25:13.896Z,99865.99
2019-06-08T09:27:43.781Z,99867.12
2019-06-08T09:30:13.620Z,99864.70
2019-06-08T09:32:43.279Z,99874.02
2019-06-08T09:35:13.258Z,99872.21
2019-06-08T09:37:42.884Z,99874.99
2019-06-08T09:40:12.739Z,99870.25
2019-06-08T09:42:42.653Z,99875.41
2019-06-08T09:45:13.160Z,99873.78
2019-06-08T09:47:42.921Z,99871.30
2019-06-08T09:50:13.340Z,99873.41
2019-06-08T09:52:43.012Z,99871.06
2019-06-08T09:55:13.001Z,99879.13
2019-06-08T09:57:42.698Z,99878.04
2019-06-08T10:00:18.284Z,99871.55
2019-06-08T10:02:44.613Z,99873.29
2019-06-08T10:05:14.701Z,99874.19
2019-06-08T10:07:44.369Z,99876.06
2019-06-08T10:10:14.641Z,99877.03
2019-06-08T10:12:44.278Z,99874.30
2019-06-08T10:15:14.397Z,99877.42
2019-06-08T10:17:44.175Z,99876.89
2019-06-08T10:20:14.549Z,99886.69
2019-06-08T10:22:44.250Z,99887.41
2019-06-08T10:25:14.127Z,99891.73
2019-06-08T10:27:43.769Z,99886.03
2019-06-08T10:30:13.979Z,99893.56
2019-06-08T10:32:50.408Z,99892.39
2019-06-08T10:35:20.620Z,99884.78
2019-06-08T10:37:51.207Z,99883.11
2019-06-08T10:40:21.456Z,99891.18
2019-06-08T10:42:51.173Z,99893.08
2019-06-08T10:45:21.284Z,99894.56
2019-06-08T10:47:51.267Z,99893.00
2019-06-08T10:50:22.144Z,99890.81
2019-06-08T10:52:52.813Z,99887.06
2019-06-08T10:55:22.656Z,99894.37
2019-06-08T10:57:52.550Z,99898.50
2019-06-08T11:00:27.941Z,99893.80
2019-06-08T11:03:01.335Z,99905.12
2019-06-08T11:05:29.398Z,99892.77
2019-06-08T11:08:00.594Z,99894.84
2019-06-08T11:10:30.663Z,99893.77
2019-06-08T11:13:05.116Z,99900.51
2019-06-08T11:15:31.847Z,99900.91
2019-06-08T11:18:04.579Z,99896.67
2019-06-08T11:20:32.930Z,99901.74
2019-06-08T11:23:03.631Z,99901.77
2019-06-08T11:25:33.910Z,99891.41
2019-06-08T11:28:03.839Z,99897.08
2019-06-08T11:30:34.169Z,99889.24
2019-06-08T11:33:03.982Z,99893.80
2019-06-08T11:35:34.329Z,99896.66
2019-06-08T11:38:05.806Z,99910.06
2019-06-08T11:40:37.892Z,99911.71
2019-06-08T11:43:08.609Z,99912.44
2019-06-08T11:45:39.212Z,99914.03
2019-06-08T11:48:09.089Z,99909.45
2019-06-08T11:50:43.125Z,99901.98
2019-06-08T11:53:14.785Z,99913.19
2019-06-08T11:55:45.124Z,99914.21
2019-06-08T11:58:19.361Z,99907.02
2019-06-08T12:01:02.841Z,99909.22
2019-06-08T12:03:31.661Z,99909.36
2019-06-08T12:06:02.150Z,99914.80
2019-06-08T12:08:32.045Z,99923.51
2019-06-08T12:11:03.764Z,99925.87
2019-06-08T12:13:33.037Z,99922.75
2019-06-08T12:16:03.131Z,99928.69
2019-06-08T12:18:32.832Z,99938.33
2019-06-08T12:21:03.735Z,99945.55
2019-06-08T12:23:33.595Z,99952.25
2019-06-08T12:26:04.075Z,99954.34
2019-06-08T12:28:33.749Z,99946.84
2019-06-08T12:31:04.619Z,99955.89
2019-06-08T12:33:34.419Z,99961.92
2019-06-08T12:36:05.239Z,99956.17
2019-06-08T12:38:38.022Z,99964.01
2019-06-08T12:41:09.627Z,99962.62
2019-06-08T12:43:39.306Z,99969.13
2019-06-08T12:46:13.417Z,99974.02
2019-06-08T12:48:43.476Z,99977.00
2019-06-08T12:51:14.750Z,99980.45
2019-06-08T12:53:44.950Z,99977.73
2019-06-08T12:56:14.844Z,99976.78
2019-06-08T12:58:47.610Z,99982.52
2019-06-08T13:01:18.657Z,99988.98
2019-06-08T13:03:48.628Z,99994.46
2019-06-08T13:06:18.537Z,100005.33
2019-06-08T13:08:49.755Z,99991.77
2019-06-08T13:11:21.287Z,100001.87
2019-06-08T13:13:51.181Z,100002.75
2019-06-08T13:16:24.246Z,99999.36
2019-06-08T13:18:52.405Z,99999.56
2019-06-08T13:21:34.191Z,100008.90
2019-06-08T13:23:53.515Z,100011.41
2019-06-08T13:26:27.897Z,100001.98
2019-06-08T13:28:54.925Z,100000.25
2019-06-08T13:31:24.926Z,100009.88
2019-06-08T13:33:54.704Z,100010.78
2019-06-08T13:36:27.223Z,100018.14
2019-06-08T13:38:56.029Z,100012.56
2019-06-08T13:41:29.044Z,100019.00
2019-06-08T13:43:58.060Z,100028.53
2019-06-08T13:46:28.349Z,100040.37
2019-06-08T13:48:58.678Z,100041.08
2019-06-08T13:51:29.203Z,100048.09
2019-06-08T13:53:59.018Z,100048.42
2019-06-08T13:56:28.736Z,100046.41
2019-06-08T13:58:58.386Z,100049.47
2019-06-08T14:01:30.765Z,100046.47
2019-06-08T14:03:59.748Z,100057.95
2019-06-08T14:06:29.638Z,100056.46
2019-06-08T14:09:00.910Z,100065.52
2019-06-08T14:11:30.560Z,100064.63
2019-06-08T14:14:01.199Z,100068.84
2019-06-08T14:16:31.412Z,100070.29
2019-06-08T14:19:01.265Z,100062.06
2019-06-08T14:21:38.643Z,100078.62
2019-06-08T14:24:02.297Z,100084.17
2019-06-08T14:26:31.933Z,100094.14
2019-06-08T14:29:01.909Z,100098.33
2019-06-08T14:31:32.100Z,100101.30
2019-06-08T14:34:01.955Z,100102.08
2019-06-08T14:36:31.526Z,100098.28
2019-06-08T14:39:02.377Z,100101.72
2019-06-08T14:41:32.769Z,100113.99
2019-06-08T14:44:02.477Z,100115.17
2019-06-08T14:46:32.172Z,100119.59
2019-06-08T14:49:01.801Z,100119.50
2019-06-08T14:51:50.067Z,100126.13
2019-06-08T14:54:26.234Z,100124.72
2019-06-08T14:56:52.858Z,100125.41
2019-06-08T14:59:23.870Z,100142.39
2019-06-08T15:01:54.007Z,100140.02
2019-06-08T15:04:27.093Z,100141.00
2019-06-08T15:06:55.083Z,100147.86
2019-06-08T15:09:25.565Z,100141.97
2019-06-08T15:11:57.966Z,100152.95
2019-06-08T15:14:29.280Z,100160.69
2019-06-08T15:16:59.082Z,100154.95
2019-06-08T15:19:30.860Z,100162.48
2019-06-08T15:22:00.610Z,100162.81
2019-06-08T15:24:32.277Z,100174.31
2019-06-08T15:27:01.759Z,100180.89
2019-06-08T15:29:32.790Z,100175.50
2019-06-08T15:32:02.720Z,100183.19
2019-06-08T15:34:33.233Z,100188.84
2019-06-08T15:37:03.253Z,100187.23
2019-06-08T15:39:34.125Z,100205.72
2019-06-08T15:42:04.161Z,100204.55
2019-06-08T16:00:10.330Z,100223.71
2019-06-08T16:02:40.318Z,100237.00
2019-06-08T16:05:10.087Z,100235.06
2019-06-08T16:07:39.749Z,100235.56
2019-06-08T16:10:10.237Z,100230.55
2019-06-08T16:12:47.725Z,100234.04
2019-06-08T16:15:17.343Z,100234.21
2019-06-08T16:17:47.135Z,100236.05
2019-06-08T16:20:36.964Z,100241.78
2019-06-08T16:23:07.584Z,100244.10
2019-06-08T16:25:38.849Z,100237.86
2019-06-08T16:28:08.494Z,100227.49
2019-06-08T16:30:39.350Z,100229.85
2019-06-08T16:33:13.086Z,100224.03
2019-06-08T16:35:43.901Z,100228.49
2019-06-08T16:38:13.507Z,100229.72
2019-06-08T16:40:43.628Z,100224.95
2019-06-08T16:43:13.840Z,100232.96
2019-06-08T16:45:43.458Z,100230.20
2019-06-08T16:48:13.238Z,100230.53
2019-06-08T16:50:42.995Z,100222.20
2019-06-08T16:53:12.917Z,100224.55
2019-06-08T16:55:42.834Z,100226.48
2019-06-08T16:58:12.520Z,100234.53
2019-06-08T17:00:42.481Z,100237.77
2019-06-08T17:03:12.267Z,100251.63
2019-06-08T17:05:42.192Z,100251.41
2019-06-08T17:08:11.916Z,100256.78
2019-06-08T17:10:42.167Z,100261.48
2019-06-08T17:13:13.110Z,100261.22
2019-06-08T17:15:42.855Z,100266.63
2019-06-08T17:18:12.499Z,100275.78
2019-06-08T17:20:42.771Z,100274.50
2019-06-08T17:23:12.770Z,100277.91
2019-06-08T17:25:42.475Z,100281.28
2019-06-08T17:28:12.134Z,100283.16
2019-06-08T17:30:41.776Z,100294.96
2019-06-08T17:33:11.398Z,100288.66
2019-06-08T17:35:42.350Z,100292.41
2019-06-08T17:38:12.178Z,100299.06
2019-06-08T17:40:42.402Z,100306.13
2019-06-08T17:43:12.233Z,100304.32
2019-06-08T17:45:42.949Z,100309.09
2019-06-08T17:48:12.933Z,100315.31
2019-06-08T17:50:43.041Z,100319.48
2019-06-08T17:53:12.872Z,100326.02
2019-06-08T17:55:43.906Z,100328.45
2019-06-08T17:58:13.569Z,100330.20
2019-06-08T18:00:45.109Z,100336.31
2019-06-08T18:03:17.242Z,100335.94
2019-06-08T18:05:48.663Z,100340.78
2019-06-08T18:08:18.619Z,100349.30
2019-06-08T18:10:48.420Z,100351.87
2019-06-08T18:13:18.617Z,100340.83
2019-06-08T18:15:49.307Z,100345.05
2019-06-08T18:18:19.048Z,100345.91
2019-06-08T18:20:51.944Z,100350.53
2019-06-08T18:23:20.143Z,100354.67
2019-06-08T18:25:50.311Z,100355.19
2019-06-08T18:28:20.055Z,100361.42
2019-06-08T18:30:49.792Z,100364.95
2019-06-08T18:33:19.775Z,100371.47
2019-06-08T18:35:49.664Z,100369.67
2019-06-08T18:38:21.287Z,100363.44
2019-06-08T18:40:51.073Z,100374.58
2019-06-08T18:43:22.276Z,100370.58
2019-06-08T18:45:51.893Z,100383.41
2019-06-08T18:48:22.202Z,100384.02
2019-06-08T18:50:52.017Z,100382.87
2019-06-08T18:53:21.709Z,100392.78
2019-06-08T18:55:51.531Z,100398.80
2019-06-08T18:58:24.924Z,100405.27
2019-06-08T19:00:53.196Z,100407.59
2019-06-08T19:03:22.924Z,100406.78
2019-06-08T19:05:53.329Z,100408.74
2019-06-08T19:08:23.816Z,100416.28
2019-06-08T19:10:53.526Z,100419.39
2019-06-08T19:13:23.365Z,100423.64
2019-06-08T19:15:53.265Z,100427.50
2019-06-08T19:18:22.997Z,100432.86
2019-06-08T19:20:53.538Z,100444.83
2019-06-08T19:23:23.362Z,100451.77
2019-06-08T19:25:53.024Z,100449.63
2019-06-08T19:28:35.954Z,100460.61
2019-06-08T19:30:58.281Z,100468.58
2019-06-08T19:33:28.300Z,100472.46
2019-06-08T19:36:02.857Z,100472.73
2019-06-08T19:38:32.395Z,100479.52
2019-06-08T19:41:04.917Z,100481.71
2019-06-08T19:43:35.006Z,100492.83
2019-06-08T19:46:07.242Z,100490.73
2019-06-08T19:48:39.626Z,100492.27
2019-06-08T19:51:12.127Z,100494.46
2019-06-08T19:53:46.572Z,100502.47
2019-06-08T19:56:21.486Z,100500.95
2019-06-08T19:59:03.061Z,100503.33
2019-06-08T20:01:30.994Z,100510.00
2019-06-08T20:04:02.105Z,100513.29
2019-06-08T20:06:38.006Z,100513.48
2019-06-08T20:09:10.269Z,100509.80
2019-06-08T20:11:49.442Z,100518.07
2019-06-08T20:14:33.880Z,100521.52
2019-06-08T20:17:04.370Z,100523.08
2019-06-08T20:19:37.389Z,100534.14
2019-06-08T20:22:09.910Z,100536.41
2019-06-08T20:24:38.811Z,100538.67
2019-06-08T20:27:10.298Z,100538.71
2019-06-08T20:29:43.331Z,100544.36
2019-06-08T20:32:13.633Z,100547.27
2019-06-08T20:34:44.550Z,100539.39
2019-06-08T20:37:17.527Z,100542.56
2019-06-08T20:39:59.364Z,100548.31
2019-06-08T20:42:21.344Z,100549.78
2019-06-08T20:44:51.982Z,100558.27
2019-06-08T20:47:22.867Z,100556.64
2019-06-08T20:49:53.444Z,100556.32
2019-06-08T20:52:23.251Z,100551.18
2019-06-08T20:54:53.549Z,100553.83
2019-06-08T20:57:23.831Z,100562.53
2019-06-08T20:59:54.053Z,100562.27
2019-06-08T21:02:25.217Z,100566.67
2019-06-08T21:04:56.216Z,100567.30
2019-06-08T21:07:28.037Z,100578.48
2019-06-08T21:09:58.096Z,100585.75
2019-06-08T21:12:31.090Z,100580.59
2019-06-08T21:15:00.688Z,100585.87
2019-06-08T21:17:30.565Z,100594.10
2019-06-08T21:20:00.300Z,100589.22
2019-06-08T21:22:30.146Z,100589.50
2019-06-08T21:25:00.262Z,100579.96
2019-06-08T21:27:30.059Z,100587.70
2019-06-08T21:30:06.705Z,100592.23
2019-06-08T21:32:31.028Z,100593.05
2019-06-08T21:35:01.533Z,100600.09
2019-06-08T21:37:31.104Z,100601.89
2019-06-08T21:40:03.687Z,100603.27
2019-06-08T21:42:32.152Z,100609.64
2019-06-08T21:45:03.956Z,100612.28
2019-06-08T21:47:32.980Z,100622.92
2019-06-08T21:50:02.663Z,100623.39
2019-06-08T21:52:32.196Z,100629.57
2019-06-08T21:55:01.759Z,100632.41
2019-06-08T21:57:31.439Z,100632.48
2019-06-08T22:00:19.209Z,100634.52
2019-06-08T22:02:32.393Z,100632.72
2019-06-08T22:05:04.685Z,100637.14
2019-06-08T22:07:33.723Z,100639.45
2019-06-08T22:10:07.238Z,100636.73
2019-06-08T22:12:39.815Z,100641.61
2019-06-08T22:15:11.665Z,100641.70
2019-06-08T22:17:41.315Z,100650.29
2019-06-08T22:20:11.256Z,100649.81
2019-06-08T22:22:40.854Z,100657.95
2019-06-08T22:25:12.227Z,100656.66
2019-06-08T22:27:41.780Z,100656.20
2019-06-08T22:30:22.818Z,100655.45
2019-06-08T22:32:43.157Z,100648.52
2019-06-08T22:35:12.829Z,100651.77
2019-06-08T22:37:42.381Z,100654.06
2019-06-08T22:40:12.117Z,100654.92
2019-06-08T22:42:41.675Z,100656.41
2019-06-08T22:45:11.529Z,100660.79
2019-06-08T22:47:41.195Z,100663.13
2019-06-08T22:50:11.960Z,100661.39
2019-06-08T22:52:41.573Z,100656.81
2019-06-08T22:55:11.511Z,100652.82
2019-06-08T22:57:41.127Z,100658.25
2019-06-08T23:00:16.621Z,100657.34
2019-06-08T23:02:42.698Z,100656.36
2019-06-08T23:05:12.601Z,100662.18
2019-06-08T23:07:42.199Z,100658.26
2019-06-08T23:10:12.024Z,100664.48
2019-06-08T23:12:41.649Z,100666.27
2019-06-08T23:15:12.333Z,100668.03
2019-06-08T23:17:41.911Z,100666.72
2019-06-08T23:20:12.204Z,100661.84
2019-06-08T23:22:41.754Z,100665.84
2019-06-08T23:25:12.598Z,100664.48
2019-06-08T23:27:42.186Z,100667.64
2019-06-08T23:30:12.342Z,100667.63
2019-06-08T23:32:41.932Z,100663.20
2019-06-08T23:35:12.588Z,100664.52
2019-06-08T23:37:42.133Z,100665.35
2019-06-08T23:40:11.927Z,100677.34
2019-06-08T23:42:41.484Z,100672.44
2019-06-08T23:45:11.109Z,100670.64
2019-06-08T23:47:40.768Z,100677.27
2019-06-08T23:50:11.554Z,100677.28
2019-06-08T23:52:41.476Z,100680.34
2019-06-08T23:55:11.960Z,100693.66
2019-06-08T23:57:41.803Z,100689.16
